sensor_id;sensor_type;location;lat;lon;timestamp;pressure;altitude;pressure_sealevel;temperature;humidity
57594;BME280;43423;46.510;6.686;2022-08-04T00:00:03;96334.34;;;24.84;46.96
57594;BME280;43423;46.510;6.686;2022-08-04T00:11:00;96320.88;;;24.83;46.88
57594;BME280;43423;46.510;6.686;2022-08-04T00:13:30;96329.16;;;24.81;46.30
57594;BME280;43423;46.510;6.686;2022-08-04T00:16:04;96323.91;;;24.77;46.32
57594;BME280;43423;46.510;6.686;2022-08-04T00:18:41;96324.91;;;24.72;46.80
57594;BME280;43423;46.510;6.686;2022-08-04T00:21:12;96331.09;;;24.70;46.67
57594;BME280;43423;46.510;6.686;2022-08-04T00:23:38;96330.38;;;24.70;47.76
57594;BME280;43423;46.510;6.686;2022-08-04T00:26:04;96330.53;;;24.72;46.66
57594;BME280;43423;46.510;6.686;2022-08-04T00:28:29;96329.97;;;24.73;47.11
57594;BME280;43423;46.510;6.686;2022-08-04T00:30:55;96325.09;;;24.74;46.98
57594;BME280;43423;46.510;6.686;2022-08-04T00:33:21;96332.34;;;24.77;46.46
57594;BME280;43423;46.510;6.686;2022-08-04T00:35:48;96331.03;;;24.78;46.39
57594;BME280;43423;46.510;6.686;2022-08-04T00:38:17;96328.97;;;24.78;46.17
57594;BME280;43423;46.510;6.686;2022-08-04T00:43:32;96330.88;;;24.76;47.45
57594;BME280;43423;46.510;6.686;2022-08-04T00:49:21;96331.69;;;24.69;47.05
57594;BME280;43423;46.510;6.686;2022-08-04T00:52:04;96338.34;;;24.56;48.69
57594;BME280;43423;46.510;6.686;2022-08-04T00:54:40;96333.47;;;24.57;48.32
57594;BME280;43423;46.510;6.686;2022-08-04T00:57:39;96335.06;;;24.50;47.54
57594;BME280;43423;46.510;6.686;2022-08-04T01:00:11;96342.06;;;24.41;49.10
57594;BME280;43423;46.510;6.686;2022-08-04T01:03:06;96355.97;;;24.32;49.03
57594;BME280;43423;46.510;6.686;2022-08-04T01:05:49;96351.63;;;24.38;47.59
57594;BME280;43423;46.510;6.686;2022-08-04T01:08:48;96357.63;;;24.42;46.71
57594;BME280;43423;46.510;6.686;2022-08-04T01:16:47;96364.97;;;24.05;50.92
57594;BME280;43423;46.510;6.686;2022-08-04T01:25:18;96354.31;;;24.29;49.75
57594;BME280;43423;46.510;6.686;2022-08-04T01:30:45;96348.50;;;24.34;48.88
57594;BME280;43423;46.510;6.686;2022-08-04T01:33:13;96348.31;;;24.32;49.02
57594;BME280;43423;46.510;6.686;2022-08-04T01:38:29;96340.97;;;24.37;48.34
57594;BME280;43423;46.510;6.686;2022-08-04T01:41:13;96338.91;;;24.37;48.66
57594;BME280;43423;46.510;6.686;2022-08-04T01:43:43;96342.31;;;24.36;48.82
57594;BME280;43423;46.510;6.686;2022-08-04T01:46:15;96344.22;;;24.33;48.80
57594;BME280;43423;46.510;6.686;2022-08-04T01:48:45;96345.38;;;24.22;49.50
57594;BME280;43423;46.510;6.686;2022-08-04T01:51:11;96337.09;;;24.24;48.72
57594;BME280;43423;46.510;6.686;2022-08-04T01:53:38;96349.28;;;24.27;48.14
57594;BME280;43423;46.510;6.686;2022-08-04T01:56:05;96344.03;;;24.23;48.65
57594;BME280;43423;46.510;6.686;2022-08-04T01:58:32;96339.44;;;24.18;49.04
57594;BME280;43423;46.510;6.686;2022-08-04T02:03:29;96345.66;;;24.09;48.74
57594;BME280;43423;46.510;6.686;2022-08-04T02:06:12;96341.19;;;24.06;48.25
57594;BME280;43423;46.510;6.686;2022-08-04T02:08:50;96342.09;;;24.09;47.85
57594;BME280;43423;46.510;6.686;2022-08-04T02:11:20;96344.00;;;24.06;47.74
57594;BME280;43423;46.510;6.686;2022-08-04T02:14:12;96345.09;;;24.11;47.66
57594;BME280;43423;46.510;6.686;2022-08-04T02:17:01;96349.78;;;24.08;47.85
57594;BME280;43423;46.510;6.686;2022-08-04T02:19:34;96348.47;;;24.09;47.73
57594;BME280;43423;46.510;6.686;2022-08-04T02:22:08;96358.78;;;24.07;47.65
57594;BME280;43423;46.510;6.686;2022-08-04T02:24:57;96356.38;;;24.03;47.99
57594;BME280;43423;46.510;6.686;2022-08-04T02:27:30;96345.94;;;23.96;48.17
57594;BME280;43423;46.510;6.686;2022-08-04T02:30:03;96345.00;;;23.93;48.36
57594;BME280;43423;46.510;6.686;2022-08-04T02:32:32;96350.88;;;23.88;47.95
57594;BME280;43423;46.510;6.686;2022-08-04T02:35:25;96344.88;;;23.84;47.95
57594;BME280;43423;46.510;6.686;2022-08-04T02:38:11;96341.97;;;23.99;47.91
57594;BME280;43423;46.510;6.686;2022-08-04T02:40:41;96341.59;;;24.03;46.84
57594;BME280;43423;46.510;6.686;2022-08-04T02:43:08;96342.34;;;24.03;47.44
57594;BME280;43423;46.510;6.686;2022-08-04T02:45:40;96345.09;;;24.11;46.85
57594;BME280;43423;46.510;6.686;2022-08-04T02:48:07;96342.84;;;24.09;47.68
57594;BME280;43423;46.510;6.686;2022-08-04T02:50:36;96348.47;;;24.09;48.28
57594;BME280;43423;46.510;6.686;2022-08-04T02:53:02;96341.75;;;24.05;48.72
57594;BME280;43423;46.510;6.686;2022-08-04T02:55:29;96338.38;;;24.06;48.58
57594;BME280;43423;46.510;6.686;2022-08-04T02:57:57;96342.50;;;24.05;48.40
57594;BME280;43423;46.510;6.686;2022-08-04T03:00:25;96339.19;;;23.99;50.42
57594;BME280;43423;46.510;6.686;2022-08-04T03:03:20;96346.91;;;23.91;51.30
57594;BME280;43423;46.510;6.686;2022-08-04T03:06:03;96343.97;;;23.81;51.16
57594;BME280;43423;46.510;6.686;2022-08-04T03:11:55;96339.19;;;23.66;51.33
57594;BME280;43423;46.510;6.686;2022-08-04T03:14:57;96347.28;;;23.55;50.59
57594;BME280;43423;46.510;6.686;2022-08-04T03:23:33;96327.66;;;23.55;50.13
57594;BME280;43423;46.510;6.686;2022-08-04T03:34:06;96339.78;;;23.57;49.19
57594;BME280;43423;46.510;6.686;2022-08-04T03:39:43;96330.44;;;23.55;48.86
57594;BME280;43423;46.510;6.686;2022-08-04T03:46:24;96347.09;;;23.60;47.83
57594;BME280;43423;46.510;6.686;2022-08-04T03:51:11;96345.38;;;23.65;47.46
57594;BME280;43423;46.510;6.686;2022-08-04T03:54:08;96350.09;;;23.62;47.21
57594;BME280;43423;46.510;6.686;2022-08-04T03:59:42;96351.75;;;23.58;47.28
57594;BME280;43423;46.510;6.686;2022-08-04T04:02:49;96343.34;;;23.58;47.84
57594;BME280;43423;46.510;6.686;2022-08-04T04:25:26;96350.19;;;23.32;48.37
57594;BME280;43423;46.510;6.686;2022-08-04T04:28:19;96351.84;;;23.35;48.60
57594;BME280;43423;46.510;6.686;2022-08-04T04:41:06;96356.53;;;23.40;49.94
57594;BME280;43423;46.510;6.686;2022-08-04T04:43:49;96367.97;;;23.27;51.43
57594;BME280;43423;46.510;6.686;2022-08-04T04:49:34;96370.97;;;23.21;51.67
57594;BME280;43423;46.510;6.686;2022-08-04T04:52:08;96365.19;;;23.19;51.09
57594;BME280;43423;46.510;6.686;2022-08-04T04:54:40;96361.25;;;23.22;49.93
57594;BME280;43423;46.510;6.686;2022-08-04T04:57:19;96370.59;;;23.25;50.22
57594;BME280;43423;46.510;6.686;2022-08-04T04:59:49;96375.81;;;23.28;50.31
57594;BME280;43423;46.510;6.686;2022-08-04T05:06:08;96384.06;;;23.26;50.33
57594;BME280;43423;46.510;6.686;2022-08-04T05:13:33;96378.06;;;23.30;50.86
57594;BME280;43423;46.510;6.686;2022-08-04T05:16:21;96381.81;;;23.32;49.97
57594;BME280;43423;46.510;6.686;2022-08-04T05:21:40;96378.03;;;23.37;49.58
57594;BME280;43423;46.510;6.686;2022-08-04T05:24:08;96371.63;;;23.45;49.31
57594;BME280;43423;46.510;6.686;2022-08-04T05:26:39;96380.22;;;23.54;50.06
57594;BME280;43423;46.510;6.686;2022-08-04T05:29:08;96379.44;;;23.61;50.19
57594;BME280;43423;46.510;6.686;2022-08-04T05:31:41;96379.06;;;23.65;50.86
57594;BME280;43423;46.510;6.686;2022-08-04T05:34:13;96373.78;;;23.69;51.02
57594;BME280;43423;46.510;6.686;2022-08-04T05:36:43;96383.66;;;23.78;51.70
57594;BME280;43423;46.510;6.686;2022-08-04T05:39:14;96388.00;;;23.79;52.78
57594;BME280;43423;46.510;6.686;2022-08-04T05:41:42;96389.84;;;23.76;53.86
57594;BME280;43423;46.510;6.686;2022-08-04T05:44:09;96399.03;;;23.77;53.29
57594;BME280;43423;46.510;6.686;2022-08-04T05:46:35;96392.81;;;23.86;54.49
57594;BME280;43423;46.510;6.686;2022-08-04T05:49:02;96394.81;;;23.93;55.23
57594;BME280;43423;46.510;6.686;2022-08-04T05:51:29;96395.00;;;23.95;56.75
57594;BME280;43423;46.510;6.686;2022-08-04T05:53:56;96394.38;;;24.04;55.28
57594;BME280;43423;46.510;6.686;2022-08-04T05:56:23;96402.75;;;24.12;55.19
57594;BME280;43423;46.510;6.686;2022-08-04T05:58:49;96403.69;;;24.14;57.32
57594;BME280;43423;46.510;6.686;2022-08-04T06:01:17;96400.25;;;24.23;57.89
57594;BME280;43423;46.510;6.686;2022-08-04T06:03:45;96394.78;;;24.33;58.49
57594;BME280;43423;46.510;6.686;2022-08-04T06:06:14;96397.34;;;24.39;57.81
57594;BME280;43423;46.510;6.686;2022-08-04T06:08:41;96398.03;;;24.47;57.32
57594;BME280;43423;46.510;6.686;2022-08-04T06:11:08;96402.09;;;24.54;57.50
57594;BME280;43423;46.510;6.686;2022-08-04T06:13:42;96403.53;;;24.62;57.00
57594;BME280;43423;46.510;6.686;2022-08-04T06:16:10;96405.38;;;24.67;56.46
57594;BME280;43423;46.510;6.686;2022-08-04T06:18:38;96404.72;;;24.76;56.64
57594;BME280;43423;46.510;6.686;2022-08-04T06:21:05;96399.94;;;24.87;56.27
57594;BME280;43423;46.510;6.686;2022-08-04T06:23:36;96393.09;;;24.97;55.51
57594;BME280;43423;46.510;6.686;2022-08-04T06:26:04;96402.78;;;25.04;54.93
57594;BME280;43423;46.510;6.686;2022-08-04T06:28:31;96396.91;;;25.27;53.89
57594;BME280;43423;46.510;6.686;2022-08-04T06:30:58;96403.13;;;25.43;51.85
57594;BME280;43423;46.510;6.686;2022-08-04T06:33:31;96402.94;;;25.58;50.13
57594;BME280;43423;46.510;6.686;2022-08-04T06:36:02;96401.28;;;25.72;51.07
57594;BME280;43423;46.510;6.686;2022-08-04T06:38:30;96404.50;;;25.69;48.87
57594;BME280;43423;46.510;6.686;2022-08-04T06:40:58;96412.91;;;26.03;47.60
57594;BME280;43423;46.510;6.686;2022-08-04T06:43:25;96403.97;;;26.24;46.66
57594;BME280;43423;46.510;6.686;2022-08-04T06:45:53;96408.25;;;26.52;46.05
57594;BME280;43423;46.510;6.686;2022-08-04T06:48:20;96403.28;;;26.80;46.77
57594;BME280;43423;46.510;6.686;2022-08-04T06:50:47;96406.13;;;26.99;45.11
57594;BME280;43423;46.510;6.686;2022-08-04T06:53:14;96405.47;;;27.18;44.72
57594;BME280;43423;46.510;6.686;2022-08-04T06:55:42;96403.22;;;27.36;44.16
57594;BME280;43423;46.510;6.686;2022-08-04T06:58:08;96396.69;;;27.23;44.45
57594;BME280;43423;46.510;6.686;2022-08-04T07:00:35;96403.81;;;27.44;44.30
57594;BME280;43423;46.510;6.686;2022-08-04T07:03:02;96403.09;;;27.43;44.25
57594;BME280;43423;46.510;6.686;2022-08-04T07:05:28;96408.25;;;27.57;44.69
57594;BME280;43423;46.510;6.686;2022-08-04T07:07:55;96411.25;;;27.68;44.59
57594;BME280;43423;46.510;6.686;2022-08-04T07:10:22;96404.72;;;27.75;44.06
57594;BME280;43423;46.510;6.686;2022-08-04T07:12:48;96408.13;;;27.84;44.31
57594;BME280;43423;46.510;6.686;2022-08-04T07:15:15;96409.47;;;27.83;44.56
57594;BME280;43423;46.510;6.686;2022-08-04T07:17:43;96416.13;;;27.97;45.04
57594;BME280;43423;46.510;6.686;2022-08-04T07:20:09;96418.31;;;28.08;44.90
57594;BME280;43423;46.510;6.686;2022-08-04T07:22:34;96417.56;;;28.17;44.78
57594;BME280;43423;46.510;6.686;2022-08-04T07:25:00;96417.16;;;28.01;45.19
57594;BME280;43423;46.510;6.686;2022-08-04T07:27:26;96415.22;;;27.94;44.67
57594;BME280;43423;46.510;6.686;2022-08-04T07:29:52;96414.94;;;28.00;45.05
57594;BME280;43423;46.510;6.686;2022-08-04T07:32:21;96415.69;;;27.91;44.47
57594;BME280;43423;46.510;6.686;2022-08-04T07:34:48;96424.28;;;28.02;44.74
57594;BME280;43423;46.510;6.686;2022-08-04T07:37:14;96423.25;;;28.07;45.11
57594;BME280;43423;46.510;6.686;2022-08-04T07:39:39;96425.59;;;28.11;44.33
57594;BME280;43423;46.510;6.686;2022-08-04T07:42:05;96416.94;;;28.19;45.05
57594;BME280;43423;46.510;6.686;2022-08-04T07:44:33;96421.47;;;28.02;42.68
57594;BME280;43423;46.510;6.686;2022-08-04T07:47:01;96414.66;;;27.86;43.42
57594;BME280;43423;46.510;6.686;2022-08-04T07:49:28;96419.13;;;27.89;43.76
57594;BME280;43423;46.510;6.686;2022-08-04T07:51:54;96425.88;;;28.25;42.60
57594;BME280;43423;46.510;6.686;2022-08-04T07:54:20;96429.75;;;28.20;41.88
57594;BME280;43423;46.510;6.686;2022-08-04T07:56:46;96424.72;;;28.08;42.01
57594;BME280;43423;46.510;6.686;2022-08-04T07:59:16;96425.63;;;28.01;42.51
57594;BME280;43423;46.510;6.686;2022-08-04T08:01:42;96428.50;;;27.82;41.80
57594;BME280;43423;46.510;6.686;2022-08-04T08:04:09;96424.16;;;28.00;41.73
57594;BME280;43423;46.510;6.686;2022-08-04T08:06:36;96424.59;;;27.87;43.46
57594;BME280;43423;46.510;6.686;2022-08-04T08:09:21;96420.59;;;27.80;42.81
57594;BME280;43423;46.510;6.686;2022-08-04T08:11:49;96416.56;;;27.93;42.59
57594;BME280;43423;46.510;6.686;2022-08-04T08:14:18;96421.03;;;27.87;42.32
57594;BME280;43423;46.510;6.686;2022-08-04T08:16:45;96420.56;;;28.09;42.83
57594;BME280;43423;46.510;6.686;2022-08-04T08:19:11;96425.94;;;27.86;42.21
57594;BME280;43423;46.510;6.686;2022-08-04T08:21:37;96417.63;;;27.88;42.76
57594;BME280;43423;46.510;6.686;2022-08-04T08:24:04;96421.94;;;27.89;43.32
57594;BME280;43423;46.510;6.686;2022-08-04T08:26:29;96415.50;;;28.08;43.59
57594;BME280;43423;46.510;6.686;2022-08-04T08:28:55;96418.59;;;28.12;43.22
57594;BME280;43423;46.510;6.686;2022-08-04T08:31:21;96422.34;;;28.15;43.07
57594;BME280;43423;46.510;6.686;2022-08-04T08:33:49;96419.78;;;28.19;41.37
57594;BME280;43423;46.510;6.686;2022-08-04T08:44:12;96424.50;;;28.35;40.22
57594;BME280;43423;46.510;6.686;2022-08-04T08:50:02;96419.19;;;28.30;39.44
57594;BME280;43423;46.510;6.686;2022-08-04T08:59:05;96413.81;;;28.24;40.71
57594;BME280;43423;46.510;6.686;2022-08-04T09:02:00;96403.72;;;28.31;41.23
57594;BME280;43423;46.510;6.686;2022-08-04T09:13:16;96414.13;;;28.59;40.75
57594;BME280;43423;46.510;6.686;2022-08-04T09:15:51;96412.94;;;28.62;40.44
57594;BME280;43423;46.510;6.686;2022-08-04T09:18:24;96420.94;;;28.76;41.06
57594;BME280;43423;46.510;6.686;2022-08-04T09:20:57;96420.41;;;28.89;40.75
57594;BME280;43423;46.510;6.686;2022-08-04T09:23:38;96413.69;;;28.94;41.05
57594;BME280;43423;46.510;6.686;2022-08-04T09:26:19;96410.34;;;29.07;40.59
57594;BME280;43423;46.510;6.686;2022-08-04T09:29:02;96401.44;;;29.01;39.51
57594;BME280;43423;46.510;6.686;2022-08-04T09:31:43;96412.38;;;29.16;39.26
57594;BME280;43423;46.510;6.686;2022-08-04T09:37:35;96407.25;;;29.25;37.95
57594;BME280;43423;46.510;6.686;2022-08-04T09:40:10;96408.09;;;29.27;37.52
57594;BME280;43423;46.510;6.686;2022-08-04T09:50:56;96401.53;;;29.67;38.79
57594;BME280;43423;46.510;6.686;2022-08-04T09:58:38;96395.88;;;29.67;38.22
57594;BME280;43423;46.510;6.686;2022-08-04T10:01:12;96392.69;;;29.73;36.87
57594;BME280;43423;46.510;6.686;2022-08-04T10:03:44;96381.53;;;29.87;37.47
57594;BME280;43423;46.510;6.686;2022-08-04T10:06:33;96381.41;;;29.96;38.64
57594;BME280;43423;46.510;6.686;2022-08-04T10:09:09;96381.88;;;29.93;37.38
57594;BME280;43423;46.510;6.686;2022-08-04T10:11:51;96380.41;;;29.92;37.70
57594;BME280;43423;46.510;6.686;2022-08-04T10:17:09;96382.28;;;29.99;38.41
57594;BME280;43423;46.510;6.686;2022-08-04T10:19:37;96380.13;;;29.76;36.75
57594;BME280;43423;46.510;6.686;2022-08-04T10:22:24;96376.22;;;29.93;36.90
57594;BME280;43423;46.510;6.686;2022-08-04T10:25:05;96370.66;;;29.83;38.29
57594;BME280;43423;46.510;6.686;2022-08-04T10:27:51;96368.81;;;29.88;38.94
57594;BME280;43423;46.510;6.686;2022-08-04T10:30:18;96368.38;;;30.03;38.08
57594;BME280;43423;46.510;6.686;2022-08-04T10:33:10;96366.81;;;30.12;36.85
57594;BME280;43423;46.510;6.686;2022-08-04T10:35:39;96360.78;;;30.29;37.96
57594;BME280;43423;46.510;6.686;2022-08-04T10:38:16;96359.53;;;30.32;37.68
57594;BME280;43423;46.510;6.686;2022-08-04T10:41:34;96360.53;;;30.37;37.98
57594;BME280;43423;46.510;6.686;2022-08-04T10:44:17;96360.50;;;30.48;36.55
57594;BME280;43423;46.510;6.686;2022-08-04T10:46:54;96355.34;;;30.45;34.96
57594;BME280;43423;46.510;6.686;2022-08-04T10:49:23;96354.59;;;30.44;34.25
57594;BME280;43423;46.510;6.686;2022-08-04T10:57:35;96348.66;;;30.87;32.82
57594;BME280;43423;46.510;6.686;2022-08-04T11:00:07;96344.38;;;31.11;30.87
57594;BME280;43423;46.510;6.686;2022-08-04T11:05:19;96341.66;;;31.25;32.66
57594;BME280;43423;46.510;6.686;2022-08-04T11:07:51;96340.69;;;31.21;31.12
57594;BME280;43423;46.510;6.686;2022-08-04T11:10:21;96333.22;;;31.39;32.95
57594;BME280;43423;46.510;6.686;2022-08-04T11:12:52;96337.25;;;31.48;31.59
57594;BME280;43423;46.510;6.686;2022-08-04T11:15:24;96332.13;;;31.58;32.29
57594;BME280;43423;46.510;6.686;2022-08-04T11:18:02;96328.88;;;31.63;31.79
57594;BME280;43423;46.510;6.686;2022-08-04T11:20:41;96327.81;;;31.82;30.15
57594;BME280;43423;46.510;6.686;2022-08-04T11:23:13;96316.88;;;31.90;29.58
57594;BME280;43423;46.510;6.686;2022-08-04T11:31:07;96318.09;;;32.27;28.33
57594;BME280;43423;46.510;6.686;2022-08-04T11:42:27;96319.28;;;32.35;29.22
57594;BME280;43423;46.510;6.686;2022-08-04T11:47:35;96321.31;;;32.33;30.07
57594;BME280;43423;46.510;6.686;2022-08-04T11:50:12;96309.38;;;32.36;29.49
57594;BME280;43423;46.510;6.686;2022-08-04T11:52:41;96307.50;;;32.41;30.36
57594;BME280;43423;46.510;6.686;2022-08-04T11:55:11;96321.84;;;32.57;30.60
57594;BME280;43423;46.510;6.686;2022-08-04T11:57:38;96305.50;;;32.43;29.34
57594;BME280;43423;46.510;6.686;2022-08-04T12:00:09;96302.63;;;32.43;28.92
57594;BME280;43423;46.510;6.686;2022-08-04T12:05:30;96305.69;;;32.34;29.80
57594;BME280;43423;46.510;6.686;2022-08-04T12:10:40;96304.72;;;32.29;31.76
57594;BME280;43423;46.510;6.686;2022-08-04T12:16:09;96300.41;;;32.28;31.80
57594;BME280;43423;46.510;6.686;2022-08-04T12:21:10;96288.59;;;32.20;30.23
57594;BME280;43423;46.510;6.686;2022-08-04T12:23:39;96284.16;;;32.31;29.23
57594;BME280;43423;46.510;6.686;2022-08-04T12:26:20;96284.19;;;32.58;29.30
57594;BME280;43423;46.510;6.686;2022-08-04T12:28:49;96285.78;;;32.47;28.11
57594;BME280;43423;46.510;6.686;2022-08-04T12:31:34;96283.34;;;32.56;27.09
57594;BME280;43423;46.510;6.686;2022-08-04T12:34:11;96271.50;;;32.75;27.91
57594;BME280;43423;46.510;6.686;2022-08-04T12:39:29;96265.09;;;32.88;27.75
57594;BME280;43423;46.510;6.686;2022-08-04T12:42:21;96262.31;;;33.04;27.39
57594;BME280;43423;46.510;6.686;2022-08-04T12:44:48;96264.50;;;33.05;27.36
57594;BME280;43423;46.510;6.686;2022-08-04T12:47:22;96264.16;;;33.13;27.10
57594;BME280;43423;46.510;6.686;2022-08-04T12:49:48;96255.00;;;33.01;27.92
57594;BME280;43423;46.510;6.686;2022-08-04T12:52:15;96256.84;;;33.24;28.43
57594;BME280;43423;46.510;6.686;2022-08-04T12:54:45;96260.69;;;33.44;28.25
57594;BME280;43423;46.510;6.686;2022-08-04T12:57:11;96266.31;;;33.28;26.50
57594;BME280;43423;46.510;6.686;2022-08-04T12:59:39;96263.53;;;33.15;29.58
57594;BME280;43423;46.510;6.686;2022-08-04T13:02:14;96257.47;;;33.22;28.81
57594;BME280;43423;46.510;6.686;2022-08-04T13:04:41;96257.81;;;33.15;28.16
57594;BME280;43423;46.510;6.686;2022-08-04T13:07:18;96257.53;;;33.09;29.05
57594;BME280;43423;46.510;6.686;2022-08-04T13:09:46;96250.75;;;33.16;32.47
57594;BME280;43423;46.510;6.686;2022-08-04T13:12:14;96253.94;;;33.08;32.49
57594;BME280;43423;46.510;6.686;2022-08-04T13:14:42;96250.72;;;32.86;30.66
57594;BME280;43423;46.510;6.686;2022-08-04T13:17:10;96246.28;;;32.83;32.21
57594;BME280;43423;46.510;6.686;2022-08-04T13:19:36;96236.16;;;32.94;30.39
57594;BME280;43423;46.510;6.686;2022-08-04T13:22:02;96241.97;;;32.96;31.32
57594;BME280;43423;46.510;6.686;2022-08-04T13:24:30;96235.53;;;32.95;30.28
57594;BME280;43423;46.510;6.686;2022-08-04T13:27:05;96226.06;;;32.77;29.35
57594;BME280;43423;46.510;6.686;2022-08-04T13:29:39;96237.44;;;32.77;31.54
57594;BME280;43423;46.510;6.686;2022-08-04T13:32:07;96216.47;;;32.70;28.85
57594;BME280;43423;46.510;6.686;2022-08-04T13:34:34;96218.25;;;32.91;29.74
57594;BME280;43423;46.510;6.686;2022-08-04T13:37:01;96219.56;;;33.04;31.53
57594;BME280;43423;46.510;6.686;2022-08-04T13:39:27;96217.84;;;33.13;29.50
57594;BME280;43423;46.510;6.686;2022-08-04T13:41:57;96215.00;;;33.13;29.94
57594;BME280;43423;46.510;6.686;2022-08-04T13:44:28;96212.34;;;33.17;28.99
57594;BME280;43423;46.510;6.686;2022-08-04T13:46:55;96211.81;;;33.20;27.97
57594;BME280;43423;46.510;6.686;2022-08-04T13:49:22;96216.03;;;33.19;28.50
57594;BME280;43423;46.510;6.686;2022-08-04T13:51:52;96214.91;;;33.11;28.24
57594;BME280;43423;46.510;6.686;2022-08-04T13:54:19;96203.31;;;33.07;28.92
57594;BME280;43423;46.510;6.686;2022-08-04T13:56:48;96210.03;;;33.13;28.85
57594;BME280;43423;46.510;6.686;2022-08-04T13:59:16;96206.66;;;32.87;28.61
57594;BME280;43423;46.510;6.686;2022-08-04T14:01:45;96198.56;;;32.68;27.98
57594;BME280;43423;46.510;6.686;2022-08-04T14:04:15;96202.88;;;32.69;29.84
57594;BME280;43423;46.510;6.686;2022-08-04T14:07:05;96196.44;;;32.68;30.08
57594;BME280;43423;46.510;6.686;2022-08-04T14:09:33;96199.69;;;32.76;30.87
57594;BME280;43423;46.510;6.686;2022-08-04T14:12:08;96194.31;;;32.83;28.73
57594;BME280;43423;46.510;6.686;2022-08-04T14:14:36;96192.22;;;32.69;28.49
57594;BME280;43423;46.510;6.686;2022-08-04T14:17:26;96199.94;;;32.67;29.99
57594;BME280;43423;46.510;6.686;2022-08-04T14:19:57;96194.25;;;32.67;28.90
57594;BME280;43423;46.510;6.686;2022-08-04T14:27:20;96182.44;;;32.72;28.42
57594;BME280;43423;46.510;6.686;2022-08-04T14:29:45;96181.22;;;32.77;27.53
57594;BME280;43423;46.510;6.686;2022-08-04T14:32:11;96179.44;;;32.84;28.24
57594;BME280;43423;46.510;6.686;2022-08-04T14:34:38;96175.44;;;32.89;26.92
57594;BME280;43423;46.510;6.686;2022-08-04T14:37:09;96173.06;;;32.99;27.23
57594;BME280;43423;46.510;6.686;2022-08-04T14:39:44;96176.50;;;33.12;27.22
57594;BME280;43423;46.510;6.686;2022-08-04T14:42:13;96178.41;;;33.07;26.89
57594;BME280;43423;46.510;6.686;2022-08-04T14:44:55;96178.75;;;32.99;27.38
57594;BME280;43423;46.510;6.686;2022-08-04T14:47:45;96181.44;;;32.95;27.26
57594;BME280;43423;46.510;6.686;2022-08-04T14:50:11;96175.53;;;32.91;27.61
57594;BME280;43423;46.510;6.686;2022-08-04T14:52:37;96171.00;;;32.86;27.13
57594;BME280;43423;46.510;6.686;2022-08-04T14:57:45;96167.84;;;32.80;26.85
57594;BME280;43423;46.510;6.686;2022-08-04T15:00:11;96161.00;;;32.85;27.94
57594;BME280;43423;46.510;6.686;2022-08-04T15:02:38;96163.22;;;32.87;27.93
57594;BME280;43423;46.510;6.686;2022-08-04T15:05:07;96152.75;;;32.77;26.72
57594;BME280;43423;46.510;6.686;2022-08-04T15:07:32;96154.69;;;32.73;26.65
57594;BME280;43423;46.510;6.686;2022-08-04T15:09:58;96152.75;;;32.77;26.71
57594;BME280;43423;46.510;6.686;2022-08-04T15:12:24;96154.44;;;32.83;27.33
57594;BME280;43423;46.510;6.686;2022-08-04T15:14:50;96157.00;;;32.76;26.95
57594;BME280;43423;46.510;6.686;2022-08-04T15:17:15;96146.75;;;32.85;27.20
57594;BME280;43423;46.510;6.686;2022-08-04T15:19:42;96159.16;;;32.92;31.43
57594;BME280;43423;46.510;6.686;2022-08-04T15:22:08;96157.84;;;32.79;29.06
57594;BME280;43423;46.510;6.686;2022-08-04T15:24:34;96155.53;;;32.75;30.37
57594;BME280;43423;46.510;6.686;2022-08-04T15:27:01;96148.91;;;32.71;30.04
57594;BME280;43423;46.510;6.686;2022-08-04T15:29:47;96153.00;;;32.68;30.55
57594;BME280;43423;46.510;6.686;2022-08-04T15:32:15;96149.34;;;32.65;33.67
57594;BME280;43423;46.510;6.686;2022-08-04T15:34:45;96153.69;;;32.53;32.69
57594;BME280;43423;46.510;6.686;2022-08-04T15:37:16;96142.00;;;32.46;31.91
57594;BME280;43423;46.510;6.686;2022-08-04T15:39:47;96140.09;;;32.51;30.87
57594;BME280;43423;46.510;6.686;2022-08-04T15:42:39;96139.47;;;32.53;30.72
57594;BME280;43423;46.510;6.686;2022-08-04T15:53:26;96130.28;;;32.54;28.51
57594;BME280;43423;46.510;6.686;2022-08-04T15:55:52;96123.75;;;32.52;27.73
57594;BME280;43423;46.510;6.686;2022-08-04T15:58:18;96120.19;;;32.51;28.08
57594;BME280;43423;46.510;6.686;2022-08-04T16:22:32;96105.53;;;32.57;25.66
57594;BME280;43423;46.510;6.686;2022-08-04T16:24:58;96101.47;;;32.62;26.03
57594;BME280;43423;46.510;6.686;2022-08-04T16:27:38;96109.06;;;32.71;26.18
57594;BME280;43423;46.510;6.686;2022-08-04T16:30:04;96113.75;;;32.80;26.45
57594;BME280;43423;46.510;6.686;2022-08-04T16:32:38;96111.66;;;32.81;26.02
57594;BME280;43423;46.510;6.686;2022-08-04T16:35:23;96117.13;;;32.76;26.74
57594;BME280;43423;46.510;6.686;2022-08-04T16:38:10;96102.59;;;32.70;27.45
57594;BME280;43423;46.510;6.686;2022-08-04T16:40:37;96107.16;;;32.62;26.22
57594;BME280;43423;46.510;6.686;2022-08-04T16:43:10;96103.41;;;32.57;27.02
57594;BME280;43423;46.510;6.686;2022-08-04T16:48:10;96108.72;;;32.49;27.13
57594;BME280;43423;46.510;6.686;2022-08-04T16:53:26;96107.13;;;32.46;27.22
57594;BME280;43423;46.510;6.686;2022-08-04T16:55:54;96111.16;;;32.41;26.36
57594;BME280;43423;46.510;6.686;2022-08-04T16:58:25;96108.84;;;32.37;25.58
57594;BME280;43423;46.510;6.686;2022-08-04T17:00:52;96104.44;;;32.34;25.98
57594;BME280;43423;46.510;6.686;2022-08-04T17:03:18;96109.16;;;32.30;26.15
57594;BME280;43423;46.510;6.686;2022-08-04T17:05:43;96111.91;;;32.28;26.05
57594;BME280;43423;46.510;6.686;2022-08-04T17:08:10;96109.38;;;32.20;26.21
57594;BME280;43423;46.510;6.686;2022-08-04T17:10:40;96113.38;;;32.15;25.74
57594;BME280;43423;46.510;6.686;2022-08-04T17:13:26;96109.31;;;32.04;25.53
57594;BME280;43423;46.510;6.686;2022-08-04T17:15:55;96107.75;;;32.01;26.21
57594;BME280;43423;46.510;6.686;2022-08-04T17:18:24;96104.16;;;32.01;26.55
57594;BME280;43423;46.510;6.686;2022-08-04T17:20:51;96103.22;;;31.96;26.08